sensor_id;sensor_type;location;lat;lon;timestamp;pressure;altitude;pressure_sealevel;temperature;humidity
33506;BME280;19843;51.040;13.782;2023-05-11T00:00:15;100089.97;;;12.53;96.13
33506;BME280;19843;51.040;13.782;2023-05-11T00:02:43;100094.88;;;12.56;95.53
33506;BME280;19843;51.040;13.782;2023-05-11T00:05:11;100091.97;;;12.52;95.37
33506;BME280;19843;51.040;13.782;2023-05-11T00:07:38;100090.09;;;12.41;95.50
33506;BME280;19843;51.040;13.782;2023-05-11T00:10:07;100090.97;;;12.29;96.78
33506;BME280;19843;51.040;13.782;2023-05-11T00:12:36;100091.44;;;12.31;97.15
33506;BME280;19843;51.040;13.782;2023-05-11T00:15:04;100088.91;;;12.26;96.99
33506;BME280;19843;51.040;13.782;2023-05-11T00:17:31;100090.25;;;12.32;96.51
33506;BME280;19843;51.040;13.782;2023-05-11T00:19:59;100094.66;;;12.33;95.64
33506;BME280;19843;51.040;13.782;2023-05-11T00:22:26;100090.94;;;11.97;97.76
33506;BME280;19843;51.040;13.782;2023-05-11T00:24:54;100088.41;;;12.08;98.15
33506;BME280;19843;51.040;13.782;2023-05-11T00:27:21;100087.72;;;12.11;98.05
33506;BME280;19843;51.040;13.782;2023-05-11T00:29:50;100086.91;;;12.11;96.83
33506;BME280;19843;51.040;13.782;2023-05-11T00:32:17;100079.66;;;12.10;96.62
33506;BME280;19843;51.040;13.782;2023-05-11T00:34:45;100083.84;;;12.16;96.96
33506;BME280;19843;51.040;13.782;2023-05-11T00:37:12;100081.84;;;12.16;96.09
33506;BME280;19843;51.040;13.782;2023-05-11T00:39:39;100093.38;;;12.15;95.38
33506;BME280;19843;51.040;13.782;2023-05-11T00:42:07;100074.81;;;12.07;95.86
33506;BME280;19843;51.040;13.782;2023-05-11T00:44:36;100084.06;;;11.95;96.35
33506;BME280;19843;51.040;13.782;2023-05-11T00:47:05;100079.38;;;11.99;95.99
33506;BME280;19843;51.040;13.782;2023-05-11T00:49:33;100090.28;;;11.88;96.77
33506;BME280;19843;51.040;13.782;2023-05-11T00:52:01;100088.53;;;11.43;99.06
33506;BME280;19843;51.040;13.782;2023-05-11T00:54:29;100092.78;;;11.65;98.36
33506;BME280;19843;51.040;13.782;2023-05-11T00:56:58;100091.06;;;11.61;97.81
33506;BME280;19843;51.040;13.782;2023-05-11T00:59:26;100091.75;;;11.58;98.12
33506;BME280;19843;51.040;13.782;2023-05-11T01:01:53;100094.22;;;11.59;97.55
33506;BME280;19843;51.040;13.782;2023-05-11T01:04:23;100094.22;;;11.59;96.62
33506;BME280;19843;51.040;13.782;2023-05-11T01:06:54;100081.16;;;11.23;98.96
33506;BME280;19843;51.040;13.782;2023-05-11T01:09:32;100082.13;;;11.43;99.19
33506;BME280;19843;51.040;13.782;2023-05-11T01:12:12;100094.13;;;11.43;97.60
33506;BME280;19843;51.040;13.782;2023-05-11T01:14:44;100087.28;;;11.41;98.40
33506;BME280;19843;51.040;13.782;2023-05-11T01:17:19;100091.25;;;11.40;98.75
33506;BME280;19843;51.040;13.782;2023-05-11T01:19:55;100097.16;;;11.50;97.95
33506;BME280;19843;51.040;13.782;2023-05-11T01:22:33;100089.47;;;11.47;96.82
33506;BME280;19843;51.040;13.782;2023-05-11T01:25:09;100095.66;;;11.41;97.11
33506;BME280;19843;51.040;13.782;2023-05-11T01:27:47;100087.66;;;11.27;97.89
33506;BME280;19843;51.040;13.782;2023-05-11T01:30:26;100093.03;;;11.20;99.13
33506;BME280;19843;51.040;13.782;2023-05-11T01:32:57;100096.75;;;11.24;97.62
33506;BME280;19843;51.040;13.782;2023-05-11T01:35:26;100085.38;;;11.17;97.67
33506;BME280;19843;51.040;13.782;2023-05-11T01:37:56;100100.72;;;11.23;96.66
33506;BME280;19843;51.040;13.782;2023-05-11T01:40:27;100098.97;;;11.06;98.57
33506;BME280;19843;51.040;13.782;2023-05-11T01:42:59;100096.06;;;11.15;97.95
33506;BME280;19843;51.040;13.782;2023-05-11T01:45:32;100096.88;;;11.15;97.21
33506;BME280;19843;51.040;13.782;2023-05-11T01:48:02;100097.00;;;11.19;97.52
33506;BME280;19843;51.040;13.782;2023-05-11T01:50:31;100101.91;;;11.10;97.27
33506;BME280;19843;51.040;13.782;2023-05-11T01:53:01;100102.38;;;11.12;97.71
33506;BME280;19843;51.040;13.782;2023-05-11T01:55:31;100101.78;;;11.06;97.08
33506;BME280;19843;51.040;13.782;2023-05-11T01:58:00;100097.97;;;10.98;98.16
33506;BME280;19843;51.040;13.782;2023-05-11T02:00:31;100094.94;;;10.79;99.06
33506;BME280;19843;51.040;13.782;2023-05-11T02:03:00;100102.41;;;10.87;98.14
33506;BME280;19843;51.040;13.782;2023-05-11T02:05:29;100092.50;;;10.90;98.95
33506;BME280;19843;51.040;13.782;2023-05-11T02:07:59;100096.81;;;10.87;97.83
33506;BME280;19843;51.040;13.782;2023-05-11T02:10:28;100092.75;;;10.85;99.37
33506;BME280;19843;51.040;13.782;2023-05-11T02:12:56;100085.88;;;10.70;99.70
33506;BME280;19843;51.040;13.782;2023-05-11T02:15:25;100097.16;;;10.61;100.00
33506;BME280;19843;51.040;13.782;2023-05-11T02:17:56;100091.09;;;10.71;100.00
33506;BME280;19843;51.040;13.782;2023-05-11T02:20:25;100092.38;;;10.86;98.71
33506;BME280;19843;51.040;13.782;2023-05-11T02:22:53;100098.91;;;10.90;98.12
33506;BME280;19843;51.040;13.782;2023-05-11T02:25:22;100105.88;;;10.84;97.23
33506;BME280;19843;51.040;13.782;2023-05-11T02:27:50;100092.63;;;10.81;97.27
33506;BME280;19843;51.040;13.782;2023-05-11T02:30:17;100094.94;;;10.79;97.33
33506;BME280;19843;51.040;13.782;2023-05-11T02:32:47;100099.59;;;10.75;97.30
33506;BME280;19843;51.040;13.782;2023-05-11T02:35:24;100094.38;;;10.61;97.75
33506;BME280;19843;51.040;13.782;2023-05-11T02:37:55;100105.88;;;10.47;98.19
33506;BME280;19843;51.040;13.782;2023-05-11T02:40:27;100103.75;;;10.32;99.69
33506;BME280;19843;51.040;13.782;2023-05-11T02:42:59;100102.59;;;10.33;99.34
33506;BME280;19843;51.040;13.782;2023-05-11T02:45:30;100100.59;;;10.34;99.29
33506;BME280;19843;51.040;13.782;2023-05-11T02:48:03;100099.28;;;10.19;99.65
33506;BME280;19843;51.040;13.782;2023-05-11T02:50:36;100097.13;;;10.37;98.77
33506;BME280;19843;51.040;13.782;2023-05-11T02:53:10;100102.84;;;10.40;97.48
33506;BME280;19843;51.040;13.782;2023-05-11T02:55:41;100106.59;;;10.44;97.79
33506;BME280;19843;51.040;13.782;2023-05-11T02:58:08;100106.44;;;10.41;97.66
33506;BME280;19843;51.040;13.782;2023-05-11T03:00:37;100103.44;;;10.46;96.59
33506;BME280;19843;51.040;13.782;2023-05-11T03:03:05;100110.41;;;10.40;96.66
33506;BME280;19843;51.040;13.782;2023-05-11T03:05:34;100100.38;;;10.39;97.12
33506;BME280;19843;51.040;13.782;2023-05-11T03:08:02;100104.22;;;10.34;96.92
33506;BME280;19843;51.040;13.782;2023-05-11T03:10:29;100108.97;;;10.34;97.24
33506;BME280;19843;51.040;13.782;2023-05-11T03:12:57;100101.03;;;10.11;97.40
33506;BME280;19843;51.040;13.782;2023-05-11T03:15:25;100101.03;;;10.23;97.70
33506;BME280;19843;51.040;13.782;2023-05-11T03:17:54;100099.56;;;10.26;97.41
33506;BME280;19843;51.040;13.782;2023-05-11T03:20:22;100102.19;;;10.22;97.92
33506;BME280;19843;51.040;13.782;2023-05-11T03:22:52;100102.22;;;10.35;97.30
33506;BME280;19843;51.040;13.782;2023-05-11T03:25:20;100107.00;;;10.34;97.40
33506;BME280;19843;51.040;13.782;2023-05-11T03:27:49;100108.19;;;10.45;95.50
33506;BME280;19843;51.040;13.782;2023-05-11T03:30:18;100108.31;;;10.61;94.29
33506;BME280;19843;51.040;13.782;2023-05-11T03:32:46;100093.66;;;10.52;95.42
33506;BME280;19843;51.040;13.782;2023-05-11T03:35:14;100099.84;;;10.70;94.10
33506;BME280;19843;51.040;13.782;2023-05-11T03:37:42;100097.72;;;10.67;92.90
33506;BME280;19843;51.040;13.782;2023-05-11T03:40:13;100107.41;;;10.69;93.47
33506;BME280;19843;51.040;13.782;2023-05-11T03:42:43;100100.28;;;10.72;92.74
33506;BME280;19843;51.040;13.782;2023-05-11T03:45:12;100098.78;;;10.74;90.91
33506;BME280;19843;51.040;13.782;2023-05-11T03:47:42;100102.03;;;10.89;90.43
33506;BME280;19843;51.040;13.782;2023-05-11T03:50:09;100102.53;;;10.79;90.42
33506;BME280;19843;51.040;13.782;2023-05-11T03:52:37;100106.31;;;11.11;88.64
33506;BME280;19843;51.040;13.782;2023-05-11T03:55:06;100106.56;;;11.18;87.67
33506;BME280;19843;51.040;13.782;2023-05-11T03:57:36;100110.81;;;11.40;86.88
33506;BME280;19843;51.040;13.782;2023-05-11T04:00:05;100109.03;;;11.47;86.70
33506;BME280;19843;51.040;13.782;2023-05-11T04:02:33;100103.56;;;11.51;86.37
33506;BME280;19843;51.040;13.782;2023-05-11T04:05:05;100105.97;;;11.65;86.20
33506;BME280;19843;51.040;13.782;2023-05-11T04:07:33;100101.72;;;11.71;87.31
33506;BME280;19843;51.040;13.782;2023-05-11T04:10:01;100115.34;;;11.72;85.53
33506;BME280;19843;51.040;13.782;2023-05-11T04:12:29;100107.31;;;11.83;85.41
33506;BME280;19843;51.040;13.782;2023-05-11T04:14:57;100115.13;;;12.05;83.83
33506;BME280;19843;51.040;13.782;2023-05-11T04:17:25;100116.25;;;12.17;83.42
33506;BME280;19843;51.040;13.782;2023-05-11T04:19:52;100107.41;;;12.30;81.97
33506;BME280;19843;51.040;13.782;2023-05-11T04:22:20;100110.47;;;12.25;80.74
33506;BME280;19843;51.040;13.782;2023-05-11T04:24:48;100112.09;;;12.42;79.88
33506;BME280;19843;51.040;13.782;2023-05-11T04:27:15;100105.88;;;12.65;78.70
33506;BME280;19843;51.040;13.782;2023-05-11T04:29:43;100108.03;;;12.71;77.38
33506;BME280;19843;51.040;13.782;2023-05-11T04:32:12;100111.47;;;12.96;76.82
33506;BME280;19843;51.040;13.782;2023-05-11T04:34:40;100115.72;;;13.41;75.16
33506;BME280;19843;51.040;13.782;2023-05-11T04:37:08;100116.84;;;13.95;72.88
33506;BME280;19843;51.040;13.782;2023-05-11T04:39:35;100126.03;;;13.72;72.61
33506;BME280;19843;51.040;13.782;2023-05-11T04:42:03;100117.13;;;14.09;71.77
33506;BME280;19843;51.040;13.782;2023-05-11T04:44:30;100115.34;;;14.20;71.70
33506;BME280;19843;51.040;13.782;2023-05-11T04:46:58;100114.59;;;14.23;70.80
33506;BME280;19843;51.040;13.782;2023-05-11T04:49:27;100118.72;;;14.72;68.83
33506;BME280;19843;51.040;13.782;2023-05-11T04:51:54;100118.66;;;14.26;70.66
33506;BME280;19843;51.040;13.782;2023-05-11T04:54:22;100117.66;;;14.38;69.79
33506;BME280;19843;51.040;13.782;2023-05-11T04:56:49;100119.63;;;14.56;69.71
33506;BME280;19843;51.040;13.782;2023-05-11T04:59:17;100116.25;;;14.93;67.78
33506;BME280;19843;51.040;13.782;2023-05-11T05:01:44;100112.53;;;15.69;64.73
33506;BME280;19843;51.040;13.782;2023-05-11T05:04:11;100110.88;;;15.98;63.36
33506;BME280;19843;51.040;13.782;2023-05-11T05:06:40;100110.06;;;15.64;63.06
33506;BME280;19843;51.040;13.782;2023-05-11T05:09:08;100107.38;;;15.44;64.40
33506;BME280;19843;51.040;13.782;2023-05-11T05:11:36;100115.81;;;15.74;63.82
33506;BME280;19843;51.040;13.782;2023-05-11T05:14:03;100112.78;;;15.60;64.45
33506;BME280;19843;51.040;13.782;2023-05-11T05:16:31;100115.31;;;15.65;65.24
33506;BME280;19843;51.040;13.782;2023-05-11T05:18:58;100113.06;;;15.51;64.95
33506;BME280;19843;51.040;13.782;2023-05-11T05:21:25;100118.28;;;15.49;65.65
33506;BME280;19843;51.040;13.782;2023-05-11T05:23:54;100111.81;;;15.75;64.53
33506;BME280;19843;51.040;13.782;2023-05-11T05:26:22;100113.34;;;16.03;63.31
33506;BME280;19843;51.040;13.782;2023-05-11T05:28:49;100115.31;;;15.99;62.59
33506;BME280;19843;51.040;13.782;2023-05-11T05:31:17;100113.88;;;16.12;62.14
33506;BME280;19843;51.040;13.782;2023-05-11T05:33:44;100113.13;;;16.19;62.14
33506;BME280;19843;51.040;13.782;2023-05-11T05:36:12;100114.97;;;16.82;60.73
33506;BME280;19843;51.040;13.782;2023-05-11T05:38:39;100111.31;;;16.78;59.83
33506;BME280;19843;51.040;13.782;2023-05-11T05:41:08;100115.38;;;16.39;60.01
33506;BME280;19843;51.040;13.782;2023-05-11T05:43:35;100124.50;;;16.70;59.03
33506;BME280;19843;51.040;13.782;2023-05-11T05:46:03;100129.44;;;17.28;57.84
33506;BME280;19843;51.040;13.782;2023-05-11T05:48:31;100121.19;;;17.67;56.97
33506;BME280;19843;51.040;13.782;2023-05-11T05:50:58;100123.88;;;17.46;57.31
33506;BME280;19843;51.040;13.782;2023-05-11T05:53:26;100126.16;;;17.92;55.26
33506;BME280;19843;51.040;13.782;2023-05-11T05:55:54;100138.78;;;18.27;54.27
33506;BME280;19843;51.040;13.782;2023-05-11T05:58:23;100123.59;;;17.69;55.57
33506;BME280;19843;51.040;13.782;2023-05-11T06:00:50;100122.31;;;17.52;56.30
33506;BME280;19843;51.040;13.782;2023-05-11T06:03:18;100124.09;;;17.78;55.08
33506;BME280;19843;51.040;13.782;2023-05-11T06:05:45;100133.19;;;17.50;55.02
33506;BME280;19843;51.040;13.782;2023-05-11T06:08:13;100130.72;;;17.45;55.54
33506;BME280;19843;51.040;13.782;2023-05-11T06:10:40;100129.06;;;17.33;55.17
33506;BME280;19843;51.040;13.782;2023-05-11T06:13:08;100124.50;;;17.18;55.99
33506;BME280;19843;51.040;13.782;2023-05-11T06:15:37;100120.88;;;17.14;55.72
33506;BME280;19843;51.040;13.782;2023-05-11T06:18:08;100124.63;;;17.36;54.92
33506;BME280;19843;51.040;13.782;2023-05-11T06:20:36;100124.38;;;17.62;54.46
33506;BME280;19843;51.040;13.782;2023-05-11T06:23:03;100136.28;;;18.00;53.83
33506;BME280;19843;51.040;13.782;2023-05-11T06:25:32;100126.13;;;17.88;54.00
33506;BME280;19843;51.040;13.782;2023-05-11T06:28:00;100126.34;;;17.55;54.60
33506;BME280;19843;51.040;13.782;2023-05-11T06:30:28;100127.75;;;17.89;53.74
33506;BME280;19843;51.040;13.782;2023-05-11T06:32:57;100130.72;;;18.36;53.04
33506;BME280;19843;51.040;13.782;2023-05-11T06:35:25;100123.09;;;18.51;53.07
33506;BME280;19843;51.040;13.782;2023-05-11T06:37:52;100121.84;;;18.34;52.48
33506;BME280;19843;51.040;13.782;2023-05-11T06:40:20;100127.94;;;18.43;52.71
33506;BME280;19843;51.040;13.782;2023-05-11T06:42:47;100116.69;;;18.72;51.46
33506;BME280;19843;51.040;13.782;2023-05-11T06:45:15;100136.81;;;18.59;51.42
33506;BME280;19843;51.040;13.782;2023-05-11T06:47:42;100121.13;;;19.01;51.04
33506;BME280;19843;51.040;13.782;2023-05-11T06:50:12;100121.91;;;18.62;51.45
33506;BME280;19843;51.040;13.782;2023-05-11T06:52:39;100124.31;;;18.60;50.86
33506;BME280;19843;51.040;13.782;2023-05-11T06:55:11;100128.00;;;18.93;50.67
33506;BME280;19843;51.040;13.782;2023-05-11T06:57:39;100119.94;;;18.95;51.29
33506;BME280;19843;51.040;13.782;2023-05-11T07:00:07;100122.34;;;18.86;50.68
33506;BME280;19843;51.040;13.782;2023-05-11T07:02:35;100129.97;;;18.64;51.62
33506;BME280;19843;51.040;13.782;2023-05-11T07:05:03;100125.50;;;18.34;52.47
33506;BME280;19843;51.040;13.782;2023-05-11T07:07:32;100123.56;;;18.85;50.81
33506;BME280;19843;51.040;13.782;2023-05-11T07:09:59;100124.38;;;18.85;50.79
33506;BME280;19843;51.040;13.782;2023-05-11T07:12:27;100127.56;;;18.66;51.41
33506;BME280;19843;51.040;13.782;2023-05-11T07:14:54;100128.41;;;18.91;50.11
33506;BME280;19843;51.040;13.782;2023-05-11T07:17:21;100123.09;;;19.36;49.04
33506;BME280;19843;51.040;13.782;2023-05-11T07:19:49;100129.97;;;19.39;48.59
33506;BME280;19843;51.040;13.782;2023-05-11T07:22:17;100126.38;;;18.92;49.83
33506;BME280;19843;51.040;13.782;2023-05-11T07:24:46;100122.72;;;19.20;49.67
33506;BME280;19843;51.040;13.782;2023-05-11T07:27:13;100129.63;;;18.90;49.69
33506;BME280;19843;51.040;13.782;2023-05-11T07:29:41;100130.34;;;19.66;49.44
33506;BME280;19843;51.040;13.782;2023-05-11T07:32:08;100135.56;;;19.75;48.33
33506;BME280;19843;51.040;13.782;2023-05-11T07:34:36;100130.34;;;19.62;48.50
33506;BME280;19843;51.040;13.782;2023-05-11T07:37:03;100121.34;;;19.89;48.34
33506;BME280;19843;51.040;13.782;2023-05-11T07:39:31;100127.53;;;19.41;49.12
33506;BME280;19843;51.040;13.782;2023-05-11T07:42:00;100131.53;;;19.72;48.27
33506;BME280;19843;51.040;13.782;2023-05-11T07:44:27;100129.59;;;19.23;48.82
33506;BME280;19843;51.040;13.782;2023-05-11T07:46:54;100128.03;;;20.31;47.03
33506;BME280;19843;51.040;13.782;2023-05-11T07:49:23;100130.06;;;20.27;46.99
33506;BME280;19843;51.040;13.782;2023-05-11T07:52:08;100135.22;;;20.50;46.56
33506;BME280;19843;51.040;13.782;2023-05-11T07:54:36;100131.28;;;20.26;45.91
33506;BME280;19843;51.040;13.782;2023-05-11T07:57:06;100129.06;;;19.85;46.70
33506;BME280;19843;51.040;13.782;2023-05-11T07:59:34;100133.13;;;19.80;47.31
33506;BME280;19843;51.040;13.782;2023-05-11T08:02:02;100128.47;;;20.22;47.36
33506;BME280;19843;51.040;13.782;2023-05-11T08:04:29;100136.31;;;19.93;46.15
33506;BME280;19843;51.040;13.782;2023-05-11T08:06:57;100139.66;;;19.41;47.83
33506;BME280;19843;51.040;13.782;2023-05-11T08:09:25;100137.41;;;20.20;46.69
33506;BME280;19843;51.040;13.782;2023-05-11T08:11:53;100138.56;;;20.27;46.47
33506;BME280;19843;51.040;13.782;2023-05-11T08:14:24;100138.97;;;20.91;45.60
33506;BME280;19843;51.040;13.782;2023-05-11T08:16:51;100140.16;;;20.97;45.60
33506;BME280;19843;51.040;13.782;2023-05-11T08:19:19;100132.63;;;20.73;45.57
33506;BME280;19843;51.040;13.782;2023-05-11T08:21:46;100146.81;;;21.21;45.18
33506;BME280;19843;51.040;13.782;2023-05-11T08:24:14;100132.63;;;21.66;44.61
33506;BME280;19843;51.040;13.782;2023-05-11T08:26:41;100139.19;;;20.63;45.39
33506;BME280;19843;51.040;13.782;2023-05-11T08:29:09;100147.56;;;20.14;46.11
33506;BME280;19843;51.040;13.782;2023-05-11T08:31:38;100122.69;;;20.43;45.65
33506;BME280;19843;51.040;13.782;2023-05-11T08:34:06;100131.28;;;20.92;44.77
33506;BME280;19843;51.040;13.782;2023-05-11T08:36:44;100135.53;;;21.59;43.59
33506;BME280;19843;51.040;13.782;2023-05-11T08:39:12;100136.94;;;21.40;43.45
33506;BME280;19843;51.040;13.782;2023-05-11T08:41:55;100133.00;;;21.68;42.54
33506;BME280;19843;51.040;13.782;2023-05-11T08:44:24;100130.41;;;22.15;42.38
33506;BME280;19843;51.040;13.782;2023-05-11T08:46:53;100128.19;;;22.57;40.90
33506;BME280;19843;51.040;13.782;2023-05-11T08:49:43;100126.31;;;22.74;41.05
33506;BME280;19843;51.040;13.782;2023-05-11T08:52:11;100137.09;;;22.86;39.97
33506;BME280;19843;51.040;13.782;2023-05-11T08:54:40;100139.78;;;22.12;40.97
33506;BME280;19843;51.040;13.782;2023-05-11T08:57:07;100151.25;;;21.26;41.84
33506;BME280;19843;51.040;13.782;2023-05-11T08:59:36;100137.84;;;21.71;41.61
33506;BME280;19843;51.040;13.782;2023-05-11T09:02:05;100138.66;;;22.03;41.16
33506;BME280;19843;51.040;13.782;2023-05-11T09:04:35;100136.94;;;22.12;41.57
33506;BME280;19843;51.040;13.782;2023-05-11T09:07:02;100134.00;;;21.89;41.17
33506;BME280;19843;51.040;13.782;2023-05-11T09:09:32;100129.66;;;22.11;41.45
33506;BME280;19843;51.040;13.782;2023-05-11T09:11:59;100125.63;;;22.09;40.91
33506;BME280;19843;51.040;13.782;2023-05-11T09:14:27;100129.28;;;22.67;40.71
33506;BME280;19843;51.040;13.782;2023-05-11T09:16:55;100126.53;;;22.60;40.58
33506;BME280;19843;51.040;13.782;2023-05-11T09:19:25;100127.22;;;22.10;40.28
33506;BME280;19843;51.040;13.782;2023-05-11T09:21:52;100126.25;;;22.78;39.51
33506;BME280;19843;51.040;13.782;2023-05-11T09:24:20;100123.19;;;22.92;38.54
33506;BME280;19843;51.040;13.782;2023-05-11T09:26:47;100125.97;;;23.42;38.17
33506;BME280;19843;51.040;13.782;2023-05-11T09:29:18;100118.50;;;23.05;39.35
33506;BME280;19843;51.040;13.782;2023-05-11T09:31:46;100124.44;;;22.91;39.27
33506;BME280;19843;51.040;13.782;2023-05-11T09:34:15;100112.16;;;23.84;38.43
33506;BME280;19843;51.040;13.782;2023-05-11T09:36:46;100102.75;;;24.43;37.42
33506;BME280;19843;51.040;13.782;2023-05-11T09:39:14;100111.94;;;23.95;37.58
33506;BME280;19843;51.040;13.782;2023-05-11T09:41:47;100121.22;;;23.36;37.92
33506;BME280;19843;51.040;13.782;2023-05-11T09:44:17;100120.00;;;22.90;37.76
33506;BME280;19843;51.040;13.782;2023-05-11T09:46:45;100118.22;;;22.99;38.04
33506;BME280;19843;51.040;13.782;2023-05-11T09:49:12;100106.50;;;23.17;37.17
33506;BME280;19843;51.040;13.782;2023-05-11T09:51:40;100118.69;;;23.18;37.59
33506;BME280;19843;51.040;13.782;2023-05-11T09:54:19;100110.41;;;23.04;37.34
33506;BME280;19843;51.040;13.782;2023-05-11T09:56:48;100122.47;;;23.55;36.70
33506;BME280;19843;51.040;13.782;2023-05-11T09:59:35;100114.53;;;23.46;36.87
33506;BME280;19843;51.040;13.782;2023-05-11T10:02:17;100105.56;;;23.24;35.94
33506;BME280;19843;51.040;13.782;2023-05-11T10:04:44;100120.38;;;23.59;36.43
33506;BME280;19843;51.040;13.782;2023-05-11T10:07:23;100124.53;;;23.54;36.25
33506;BME280;19843;51.040;13.782;2023-05-11T10:09:52;100119.31;;;24.12;35.72
33506;BME280;19843;51.040;13.782;2023-05-11T10:12:22;100101.19;;;24.02;33.32
33506;BME280;19843;51.040;13.782;2023-05-11T10:14:53;100106.69;;;23.93;34.88
33506;BME280;19843;51.040;13.782;2023-05-11T10:17:20;100115.66;;;23.72;34.34
33506;BME280;19843;51.040;13.782;2023-05-11T10:19:48;100106.16;;;24.35;33.97
33506;BME280;19843;51.040;13.782;2023-05-11T10:22:17;100106.56;;;23.57;34.33
33506;BME280;19843;51.040;13.782;2023-05-11T10:24:45;100102.63;;;23.08;34.76
33506;BME280;19843;51.040;13.782;2023-05-11T10:27:14;100124.28;;;23.45;34.31
33506;BME280;19843;51.040;13.782;2023-05-11T10:29:42;100116.34;;;22.62;34.81
33506;BME280;19843;51.040;13.782;2023-05-11T10:32:10;100109.19;;;22.78;34.96
33506;BME280;19843;51.040;13.782;2023-05-11T10:34:38;100115.00;;;22.70;34.66
33506;BME280;19843;51.040;13.782;2023-05-11T10:37:07;100112.63;;;23.59;34.61
33506;BME280;19843;51.040;13.782;2023-05-11T10:39:36;100121.63;;;23.58;34.91
33506;BME280;19843;51.040;13.782;2023-05-11T10:42:17;100113.81;;;24.01;34.18
33506;BME280;19843;51.040;13.782;2023-05-11T10:44:59;100112.41;;;24.30;33.16
33506;BME280;19843;51.040;13.782;2023-05-11T10:47:45;100110.97;;;24.21;32.61
33506;BME280;19843;51.040;13.782;2023-05-11T10:50:28;100107.88;;;24.32;33.28
33506;BME280;19843;51.040;13.782;2023-05-11T10:53:15;100108.69;;;24.33;33.34
33506;BME280;19843;51.040;13.782;2023-05-11T10:56:02;100114.41;;;24.13;33.11
33506;BME280;19843;51.040;13.782;2023-05-11T10:58:55;100100.91;;;24.33;34.08
33506;BME280;19843;51.040;13.782;2023-05-11T11:01:35;100103.28;;;24.38;34.18
33506;BME280;19843;51.040;13.782;2023-05-11T11:04:06;100114.69;;;24.38;34.37
33506;BME280;19843;51.040;13.782;2023-05-11T11:06:35;100096.41;;;24.36;33.84
33506;BME280;19843;51.040;13.782;2023-05-11T11:09:04;100108.69;;;23.53;33.83
33506;BME280;19843;51.040;13.782;2023-05-11T11:11:35;100106.97;;;24.35;33.24
33506;BME280;19843;51.040;13.782;2023-05-11T11:14:06;100092.31;;;24.53;33.09
33506;BME280;19843;51.040;13.782;2023-05-11T11:16:35;100091.88;;;24.18;33.95
33506;BME280;19843;51.040;13.782;2023-05-11T11:19:36;100098.38;;;24.19;34.44
33506;BME280;19843;51.040;13.782;2023-05-11T11:22:42;100097.88;;;24.60;33.96
33506;BME280;19843;51.040;13.782;2023-05-11T11:25:10;100115.97;;;24.34;34.26
33506;BME280;19843;51.040;13.782;2023-05-11T11:27:56;100107.44;;;24.70;33.90
33506;BME280;19843;51.040;13.782;2023-05-11T11:30:26;100107.84;;;24.68;33.79
33506;BME280;19843;51.040;13.782;2023-05-11T11:33:30;100097.63;;;24.71;34.29
33506;BME280;19843;51.040;13.782;2023-05-11T11:35:57;100101.63;;;24.90;33.33
33506;BME280;19843;51.040;13.782;2023-05-11T11:38:25;100096.88;;;25.32;33.08
33506;BME280;19843;51.040;13.782;2023-05-11T11:40:55;100096.63;;;24.94;33.25
33506;BME280;19843;51.040;13.782;2023-05-11T11:43:24;100107.00;;;24.15;34.37
33506;BME280;19843;51.040;13.782;2023-05-11T11:45:53;100115.97;;;23.54;35.24
33506;BME280;19843;51.040;13.782;2023-05-11T11:48:27;100124.44;;;23.14;35.58
33506;BME280;19843;51.040;13.782;2023-05-11T11:51:03;100129.22;;;22.43;36.75
33506;BME280;19843;51.040;13.782;2023-05-11T11:54:04;100110.97;;;22.14;37.18
33506;BME280;19843;51.040;13.782;2023-05-11T11:56:37;100118.63;;;21.83;37.94
33506;BME280;19843;51.040;13.782;2023-05-11T11:59:05;100124.81;;;21.74;38.69
33506;BME280;19843;51.040;13.782;2023-05-11T12:01:38;100117.84;;;22.43;37.52
33506;BME280;19843;51.040;13.782;2023-05-11T12:07:06;100120.13;;;22.25;37.79
33506;BME280;19843;51.040;13.782;2023-05-11T12:09:35;100129.03;;;22.54;37.54
33506;BME280;19843;51.040;13.782;2023-05-11T12:12:04;100121.72;;;22.26;38.14
33506;BME280;19843;51.040;13.782;2023-05-11T12:14:33;100131.31;;;22.66;37.79
33506;BME280;19843;51.040;13.782;2023-05-11T12:17:05;100129.16;;;22.47;37.54
33506;BME280;19843;51.040;13.782;2023-05-11T12:19:39;100128.38;;;22.46;37.65
33506;BME280;19843;51.040;13.782;2023-05-11T12:22:07;100130.75;;;23.02;37.17
33506;BME280;19843;51.040;13.782;2023-05-11T12:24:36;100141.66;;;22.80;37.14
33506;BME280;19843;51.040;13.782;2023-05-11T12:27:04;100134.13;;;22.09;37.29
33506;BME280;19843;51.040;13.782;2023-05-11T12:29:32;100128.13;;;22.34;37.75
33506;BME280;19843;51.040;13.782;2023-05-11T12:31:59;100144.34;;;22.03;37.70
33506;BME280;19843;51.040;13.782;2023-05-11T12:34:28;100132.75;;;21.90;37.68
33506;BME280;19843;51.040;13.782;2023-05-11T12:36:55;100137.88;;;21.68;38.18
33506;BME280;19843;51.040;13.782;2023-05-11T12:39:26;100135.00;;;21.71;38.04
33506;BME280;19843;51.040;13.782;2023-05-11T12:41:55;100133.81;;;22.34;37.46
33506;BME280;19843;51.040;13.782;2023-05-11T12:44:24;100136.44;;;22.21;37.81
33506;BME280;19843;51.040;13.782;2023-05-11T12:46:53;100136.63;;;21.69;37.20
33506;BME280;19843;51.040;13.782;2023-05-11T12:49:22;100135.13;;;21.61;36.84
33506;BME280;19843;51.040;13.782;2023-05-11T12:52:04;100139.53;;;21.20;37.87
33506;BME280;19843;51.040;13.782;2023-05-11T12:54:35;100138.63;;;21.34;37.41
33506;BME280;19843;51.040;13.782;2023-05-11T12:57:06;100138.47;;;21.52;37.66